sensor_id;sensor_type;location;lat;lon;timestamp;P1;durP1;ratioP1;P2;durP2;ratioP2
2652;SDS011;1336;48.692;9.144;2023-11-18T06:00:39;5.53;;;4.83;;
2652;SDS011;1336;48.692;9.144;2023-11-18T06:01:30;6.22;;;5.55;;
2652;SDS011;1336;48.692;9.144;2023-11-18T06:02:21;5.43;;;5.03;;
2652;SDS011;1336;48.692;9.144;2023-11-18T06:03:15;5.50;;;5.00;;
2652;SDS011;1336;48.692;9.144;2023-11-18T06:04:07;5.68;;;5.20;;
2652;SDS011;1336;48.692;9.144;2023-11-18T06:04:58;5.13;;;4.72;;
2652;SDS011;1336;48.692;9.144;2023-11-18T06:05:50;5.15;;;4.75;;
2652;SDS011;1336;48.692;9.144;2023-11-18T06:06:41;4.80;;;4.40;;
2652;SDS011;1336;48.692;9.144;2023-11-18T06:07:32;4.57;;;4.20;;
2652;SDS011;1336;48.692;9.144;2023-11-18T06:08:25;5.00;;;4.50;;
2652;SDS011;1336;48.692;9.144;2023-11-18T06:09:16;6.57;;;4.97;;
2652;SDS011;1336;48.692;9.144;2023-11-18T06:10:10;4.40;;;3.97;;
2652;SDS011;1336;48.692;9.144;2023-11-18T06:11:02;4.85;;;4.45;;
2652;SDS011;1336;48.692;9.144;2023-11-18T06:12:03;4.60;;;4.30;;
2652;SDS011;1336;48.692;9.144;2023-11-18T06:12:58;5.07;;;4.68;;
2652;SDS011;1336;48.692;9.144;2023-11-18T06:13:50;5.23;;;4.60;;
2652;SDS011;1336;48.692;9.144;2023-11-18T06:14:42;4.90;;;4.50;;
2652;SDS011;1336;48.692;9.144;2023-11-18T06:15:34;5.15;;;4.75;;
2652;SDS011;1336;48.692;9.144;2023-11-18T06:16:30;5.45;;;5.05;;
2652;SDS011;1336;48.692;9.144;2023-11-18T06:17:21;5.93;;;5.43;;
2652;SDS011;1336;48.692;9.144;2023-11-18T06:18:12;5.70;;;5.10;;
2652;SDS011;1336;48.692;9.144;2023-11-18T06:19:03;6.25;;;5.75;;
2652;SDS011;1336;48.692;9.144;2023-11-18T06:19:56;5.85;;;5.45;;
2652;SDS011;1336;48.692;9.144;2023-11-18T06:20:46;5.67;;;5.07;;
2652;SDS011;1336;48.692;9.144;2023-11-18T06:21:38;5.50;;;5.00;;
2652;SDS011;1336;48.692;9.144;2023-11-18T06:22:30;6.20;;;5.70;;
2652;SDS011;1336;48.692;9.144;2023-11-18T06:23:21;6.00;;;5.40;;
2652;SDS011;1336;48.692;9.144;2023-11-18T06:24:13;6.47;;;5.88;;
2652;SDS011;1336;48.692;9.144;2023-11-18T06:25:05;5.70;;;5.20;;
2652;SDS011;1336;48.692;9.144;2023-11-18T06:25:57;6.05;;;5.55;;
2652;SDS011;1336;48.692;9.144;2023-11-18T06:26:50;5.65;;;5.18;;
2652;SDS011;1336;48.692;9.144;2023-11-18T06:27:42;5.80;;;5.30;;
2652;SDS011;1336;48.692;9.144;2023-11-18T06:28:35;6.05;;;5.55;;
2652;SDS011;1336;48.692;9.144;2023-11-18T06:29:27;5.60;;;5.10;;
2652;SDS011;1336;48.692;9.144;2023-11-18T06:30:19;5.97;;;5.50;;
2652;SDS011;1336;48.692;9.144;2023-11-18T06:31:10;6.23;;;5.63;;
2652;SDS011;1336;48.692;9.144;2023-11-18T06:32:03;5.38;;;4.97;;
2652;SDS011;1336;48.692;9.144;2023-11-18T06:32:55;6.00;;;5.40;;
2652;SDS011;1336;48.692;9.144;2023-11-18T06:33:46;6.17;;;5.57;;
2652;SDS011;1336;48.692;9.144;2023-11-18T06:34:39;6.20;;;5.70;;
2652;SDS011;1336;48.692;9.144;2023-11-18T06:35:30;5.35;;;4.95;;
2652;SDS011;1336;48.692;9.144;2023-11-18T06:36:24;6.20;;;5.70;;
2652;SDS011;1336;48.692;9.144;2023-11-18T06:37:16;6.28;;;5.78;;
2652;SDS011;1336;48.692;9.144;2023-11-18T06:38:08;5.53;;;5.03;;
2652;SDS011;1336;48.692;9.144;2023-11-18T06:39:03;5.50;;;5.10;;
2652;SDS011;1336;48.692;9.144;2023-11-18T06:39:55;6.35;;;5.85;;
2652;SDS011;1336;48.692;9.144;2023-11-18T06:40:47;7.47;;;6.60;;
2652;SDS011;1336;48.692;9.144;2023-11-18T06:41:42;6.45;;;5.85;;
2652;SDS011;1336;48.692;9.144;2023-11-18T06:42:38;6.10;;;5.68;;
2652;SDS011;1336;48.692;9.144;2023-11-18T06:43:30;5.82;;;5.35;;
2652;SDS011;1336;48.692;9.144;2023-11-18T06:44:36;6.22;;;5.68;;
2652;SDS011;1336;48.692;9.144;2023-11-18T06:45:26;5.37;;;4.87;;
2652;SDS011;1336;48.692;9.144;2023-11-18T06:46:20;5.65;;;5.15;;
2652;SDS011;1336;48.692;9.144;2023-11-18T06:47:13;5.72;;;5.28;;
2652;SDS011;1336;48.692;9.144;2023-11-18T06:48:08;5.15;;;4.75;;
2652;SDS011;1336;48.692;9.144;2023-11-18T06:48:59;4.77;;;4.40;;
2652;SDS011;1336;48.692;9.144;2023-11-18T06:49:53;5.40;;;5.00;;
2652;SDS011;1336;48.692;9.144;2023-11-18T06:50:46;5.22;;;4.22;;
2652;SDS011;1336;48.692;9.144;2023-11-18T06:51:37;5.85;;;4.95;;
2652;SDS011;1336;48.692;9.144;2023-11-18T06:52:28;5.60;;;5.10;;
2652;SDS011;1336;48.692;9.144;2023-11-18T06:53:19;6.85;;;5.50;;
2652;SDS011;1336;48.692;9.144;2023-11-18T06:54:10;5.43;;;5.03;;
2652;SDS011;1336;48.692;9.144;2023-11-18T06:55:03;5.82;;;5.32;;
2652;SDS011;1336;48.692;9.144;2023-11-18T06:55:55;5.25;;;4.80;;
2652;SDS011;1336;48.692;9.144;2023-11-18T06:56:45;5.30;;;4.80;;
2652;SDS011;1336;48.692;9.144;2023-11-18T06:57:37;5.70;;;5.20;;
2652;SDS011;1336;48.692;9.144;2023-11-18T06:58:28;4.90;;;4.40;;
2652;SDS011;1336;48.692;9.144;2023-11-18T06:59:19;5.13;;;4.73;;
2652;SDS011;1336;48.692;9.144;2023-11-18T07:00:11;5.40;;;4.90;;
2652;SDS011;1336;48.692;9.144;2023-11-18T07:01:04;5.57;;;4.78;;
2652;SDS011;1336;48.692;9.144;2023-11-18T07:01:56;5.30;;;4.90;;
2652;SDS011;1336;48.692;9.144;2023-11-18T07:02:49;5.55;;;5.05;;
2652;SDS011;1336;48.692;9.144;2023-11-18T07:03:40;5.28;;;4.78;;
2652;SDS011;1336;48.692;9.144;2023-11-18T07:04:32;5.07;;;4.68;;
2652;SDS011;1336;48.692;9.144;2023-11-18T07:05:23;6.33;;;5.67;;
2652;SDS011;1336;48.692;9.144;2023-11-18T07:06:16;5.07;;;4.68;;
2652;SDS011;1336;48.692;9.144;2023-11-18T07:07:12;4.63;;;4.30;;
2652;SDS011;1336;48.692;9.144;2023-11-18T07:08:03;5.40;;;5.00;;
2652;SDS011;1336;48.692;9.144;2023-11-18T07:08:54;4.90;;;4.50;;
2652;SDS011;1336;48.692;9.144;2023-11-18T07:09:50;5.25;;;4.78;;
2652;SDS011;1336;48.692;9.144;2023-11-18T07:10:42;5.38;;;4.75;;
2652;SDS011;1336;48.692;9.144;2023-11-18T07:11:33;5.60;;;5.07;;
2652;SDS011;1336;48.692;9.144;2023-11-18T07:12:25;5.82;;;5.32;;
2652;SDS011;1336;48.692;9.144;2023-11-18T07:13:15;5.80;;;5.27;;
2652;SDS011;1336;48.692;9.144;2023-11-18T07:14:07;5.50;;;4.97;;
2652;SDS011;1336;48.692;9.144;2023-11-18T07:14:59;5.80;;;5.30;;
2652;SDS011;1336;48.692;9.144;2023-11-18T07:15:50;4.97;;;4.57;;
2652;SDS011;1336;48.692;9.144;2023-11-18T07:16:44;5.03;;;4.55;;
2652;SDS011;1336;48.692;9.144;2023-11-18T07:17:34;5.70;;;5.20;;
2652;SDS011;1336;48.692;9.144;2023-11-18T07:18:26;5.50;;;4.93;;
2652;SDS011;1336;48.692;9.144;2023-11-18T07:19:20;5.40;;;4.95;;
2652;SDS011;1336;48.692;9.144;2023-11-18T07:20:11;6.20;;;5.50;;
2652;SDS011;1336;48.692;9.144;2023-11-18T07:21:03;5.82;;;5.30;;
2652;SDS011;1336;48.692;9.144;2023-11-18T07:21:55;6.20;;;5.60;;
2652;SDS011;1336;48.692;9.144;2023-11-18T07:22:46;5.87;;;5.37;;
2652;SDS011;1336;48.692;9.144;2023-11-18T07:23:37;5.85;;;5.32;;
2652;SDS011;1336;48.692;9.144;2023-11-18T07:24:28;5.80;;;5.30;;
2652;SDS011;1336;48.692;9.144;2023-11-18T07:25:20;5.93;;;5.45;;
2652;SDS011;1336;48.692;9.144;2023-11-18T07:26:12;5.13;;;4.70;;
2652;SDS011;1336;48.692;9.144;2023-11-18T07:27:03;5.50;;;5.00;;
2652;SDS011;1336;48.692;9.144;2023-11-18T07:27:55;5.30;;;4.90;;
2652;SDS011;1336;48.692;9.144;2023-11-18T07:28:46;5.30;;;4.90;;
2652;SDS011;1336;48.692;9.144;2023-11-18T07:29:37;6.00;;;5.47;;
2652;SDS011;1336;48.692;9.144;2023-11-18T07:30:29;6.15;;;5.55;;
2652;SDS011;1336;48.692;9.144;2023-11-18T07:31:20;6.95;;;4.70;;
2652;SDS011;1336;48.692;9.144;2023-11-18T07:32:12;5.82;;;5.32;;
2652;SDS011;1336;48.692;9.144;2023-11-18T07:33:03;5.38;;;4.97;;
2652;SDS011;1336;48.692;9.144;2023-11-18T07:33:56;5.32;;;4.93;;
2652;SDS011;1336;48.692;9.144;2023-11-18T07:34:48;6.00;;;5.43;;
2652;SDS011;1336;48.692;9.144;2023-11-18T07:35:39;5.10;;;4.70;;
2652;SDS011;1336;48.692;9.144;2023-11-18T07:36:30;5.50;;;5.03;;
2652;SDS011;1336;48.692;9.144;2023-11-18T07:37:21;5.43;;;5.03;;
2652;SDS011;1336;48.692;9.144;2023-11-18T07:38:12;5.70;;;5.20;;
2652;SDS011;1336;48.692;9.144;2023-11-18T07:39:04;6.20;;;5.63;;
2652;SDS011;1336;48.692;9.144;2023-11-18T07:39:55;6.15;;;5.05;;
2652;SDS011;1336;48.692;9.144;2023-11-18T07:40:46;5.80;;;5.20;;
2652;SDS011;1336;48.692;9.144;2023-11-18T07:41:38;5.55;;;5.07;;
2652;SDS011;1336;48.692;9.144;2023-11-18T07:42:28;5.80;;;5.30;;
2652;SDS011;1336;48.692;9.144;2023-11-18T07:43:20;6.10;;;5.60;;
2652;SDS011;1336;48.692;9.144;2023-11-18T07:44:12;6.40;;;5.80;;
2652;SDS011;1336;48.692;9.144;2023-11-18T07:45:03;5.83;;;5.30;;
2652;SDS011;1336;48.692;9.144;2023-11-18T07:46:07;5.85;;;5.35;;
2652;SDS011;1336;48.692;9.144;2023-11-18T07:46:58;5.73;;;5.23;;
2652;SDS011;1336;48.692;9.144;2023-11-18T07:47:49;5.20;;;4.80;;
2652;SDS011;1336;48.692;9.144;2023-11-18T07:48:41;5.85;;;5.35;;
2652;SDS011;1336;48.692;9.144;2023-11-18T07:49:33;6.20;;;5.20;;
2652;SDS011;1336;48.692;9.144;2023-11-18T07:50:25;5.68;;;5.28;;
2652;SDS011;1336;48.692;9.144;2023-11-18T07:51:16;5.72;;;5.22;;
2652;SDS011;1336;48.692;9.144;2023-11-18T07:52:07;5.73;;;4.70;;
2652;SDS011;1336;48.692;9.144;2023-11-18T07:52:59;5.18;;;4.78;;
2652;SDS011;1336;48.692;9.144;2023-11-18T07:53:50;6.60;;;5.23;;
2652;SDS011;1336;48.692;9.144;2023-11-18T07:54:41;5.35;;;4.60;;
2652;SDS011;1336;48.692;9.144;2023-11-18T07:55:33;5.53;;;5.10;;
2652;SDS011;1336;48.692;9.144;2023-11-18T07:56:24;5.20;;;4.80;;
2652;SDS011;1336;48.692;9.144;2023-11-18T07:57:17;5.00;;;4.60;;
2652;SDS011;1336;48.692;9.144;2023-11-18T07:58:08;5.25;;;4.75;;
2652;SDS011;1336;48.692;9.144;2023-11-18T07:59:00;5.10;;;4.30;;
2652;SDS011;1336;48.692;9.144;2023-11-18T07:59:53;7.28;;;5.00;;
2652;SDS011;1336;48.692;9.144;2023-11-18T08:00:44;6.47;;;5.80;;
2652;SDS011;1336;48.692;9.144;2023-11-18T08:01:35;5.63;;;5.18;;
2652;SDS011;1336;48.692;9.144;2023-11-18T08:02:27;7.15;;;6.45;;
2652;SDS011;1336;48.692;9.144;2023-11-18T08:03:18;6.47;;;5.90;;
2652;SDS011;1336;48.692;9.144;2023-11-18T08:04:10;7.03;;;6.43;;
2652;SDS011;1336;48.692;9.144;2023-11-18T08:05:05;7.03;;;6.47;;
2652;SDS011;1336;48.692;9.144;2023-11-18T08:05:57;7.57;;;6.97;;
2652;SDS011;1336;48.692;9.144;2023-11-18T08:06:48;9.37;;;8.57;;
2652;SDS011;1336;48.692;9.144;2023-11-18T08:07:42;8.32;;;7.40;;
2652;SDS011;1336;48.692;9.144;2023-11-18T08:08:34;12.50;;;11.48;;
2652;SDS011;1336;48.692;9.144;2023-11-18T08:09:26;10.07;;;9.27;;
2652;SDS011;1336;48.692;9.144;2023-11-18T08:10:21;6.80;;;6.20;;
2652;SDS011;1336;48.692;9.144;2023-11-18T08:11:12;7.15;;;6.55;;
2652;SDS011;1336;48.692;9.144;2023-11-18T08:12:04;7.50;;;6.90;;
2652;SDS011;1336;48.692;9.144;2023-11-18T08:12:58;12.45;;;9.73;;
2652;SDS011;1336;48.692;9.144;2023-11-18T08:13:49;10.20;;;9.20;;
2652;SDS011;1336;48.692;9.144;2023-11-18T08:14:42;14.35;;;13.02;;
2652;SDS011;1336;48.692;9.144;2023-11-18T08:15:32;13.23;;;11.93;;
2652;SDS011;1336;48.692;9.144;2023-11-18T08:16:25;14.20;;;12.90;;
2652;SDS011;1336;48.692;9.144;2023-11-18T08:17:17;17.15;;;15.55;;
2652;SDS011;1336;48.692;9.144;2023-11-18T08:18:09;13.57;;;12.32;;
2652;SDS011;1336;48.692;9.144;2023-11-18T08:19:00;14.30;;;13.00;;
2652;SDS011;1336;48.692;9.144;2023-11-18T08:19:52;15.00;;;13.68;;
2652;SDS011;1336;48.692;9.144;2023-11-18T08:20:45;15.13;;;13.77;;
2652;SDS011;1336;48.692;9.144;2023-11-18T08:21:36;8.82;;;7.93;;
2652;SDS011;1336;48.692;9.144;2023-11-18T08:22:28;14.80;;;13.43;;
2652;SDS011;1336;48.692;9.144;2023-11-18T08:23:20;10.07;;;9.07;;
2652;SDS011;1336;48.692;9.144;2023-11-18T08:24:11;10.90;;;9.70;;
2652;SDS011;1336;48.692;9.144;2023-11-18T08:25:02;8.15;;;7.45;;
2652;SDS011;1336;48.692;9.144;2023-11-18T08:25:58;9.50;;;8.60;;
2652;SDS011;1336;48.692;9.144;2023-11-18T08:26:49;11.77;;;10.77;;
2652;SDS011;1336;48.692;9.144;2023-11-18T08:27:40;11.07;;;10.07;;
2652;SDS011;1336;48.692;9.144;2023-11-18T08:28:31;12.40;;;11.30;;
2652;SDS011;1336;48.692;9.144;2023-11-18T08:29:23;10.70;;;9.60;;
2652;SDS011;1336;48.692;9.144;2023-11-18T08:30:18;18.05;;;16.25;;
2652;SDS011;1336;48.692;9.144;2023-11-18T08:31:12;11.50;;;10.35;;
2652;SDS011;1336;48.692;9.144;2023-11-18T08:32:06;12.77;;;11.57;;
2652;SDS011;1336;48.692;9.144;2023-11-18T08:32:59;11.55;;;10.45;;
2652;SDS011;1336;48.692;9.144;2023-11-18T08:33:50;15.17;;;13.87;;
2652;SDS011;1336;48.692;9.144;2023-11-18T08:34:44;11.65;;;10.55;;
2652;SDS011;1336;48.692;9.144;2023-11-18T08:35:35;10.13;;;9.13;;
2652;SDS011;1336;48.692;9.144;2023-11-18T08:36:27;8.80;;;8.00;;
2652;SDS011;1336;48.692;9.144;2023-11-18T08:37:22;24.15;;;21.98;;
2652;SDS011;1336;48.692;9.144;2023-11-18T08:38:13;20.43;;;18.53;;
2652;SDS011;1336;48.692;9.144;2023-11-18T08:39:04;16.45;;;14.98;;
2652;SDS011;1336;48.692;9.144;2023-11-18T08:39:55;14.87;;;13.10;;
2652;SDS011;1336;48.692;9.144;2023-11-18T08:40:46;14.73;;;13.30;;
2652;SDS011;1336;48.692;9.144;2023-11-18T08:41:40;11.77;;;10.68;;
2652;SDS011;1336;48.692;9.144;2023-11-18T08:42:35;11.27;;;10.25;;
2652;SDS011;1336;48.692;9.144;2023-11-18T08:43:26;10.02;;;9.13;;
2652;SDS011;1336;48.692;9.144;2023-11-18T08:44:18;10.23;;;9.32;;
2652;SDS011;1336;48.692;9.144;2023-11-18T08:45:09;9.53;;;8.73;;
2652;SDS011;1336;48.692;9.144;2023-11-18T08:46:04;17.63;;;15.93;;
2652;SDS011;1336;48.692;9.144;2023-11-18T08:46:57;11.20;;;10.20;;
2652;SDS011;1336;48.692;9.144;2023-11-18T08:47:49;11.32;;;10.13;;
2652;SDS011;1336;48.692;9.144;2023-11-18T08:48:39;10.40;;;9.40;;
2652;SDS011;1336;48.692;9.144;2023-11-18T08:49:31;9.90;;;9.00;;
2652;SDS011;1336;48.692;9.144;2023-11-18T08:50:24;13.90;;;11.98;;
2652;SDS011;1336;48.692;9.144;2023-11-18T08:51:15;9.68;;;8.68;;
2652;SDS011;1336;48.692;9.144;2023-11-18T08:52:08;6.78;;;6.18;;
2652;SDS011;1336;48.692;9.144;2023-11-18T08:53:02;7.40;;;6.70;;
2652;SDS011;1336;48.692;9.144;2023-11-18T08:53:55;5.93;;;5.43;;
2652;SDS011;1336;48.692;9.144;2023-11-18T08:54:48;6.50;;;5.93;;
2652;SDS011;1336;48.692;9.144;2023-11-18T08:55:57;6.40;;;5.35;;
2652;SDS011;1336;48.692;9.144;2023-11-18T08:56:49;5.50;;;4.97;;
2652;SDS011;1336;48.692;9.144;2023-11-18T08:57:42;5.30;;;4.90;;
2652;SDS011;1336;48.692;9.144;2023-11-18T08:58:42;5.70;;;5.20;;
2652;SDS011;1336;48.692;9.144;2023-11-18T08:59:34;5.78;;;5.18;;
2652;SDS011;1336;48.692;9.144;2023-11-18T09:00:26;5.10;;;4.10;;
2652;SDS011;1336;48.692;9.144;2023-11-18T09:01:36;5.88;;;4.10;;
2652;SDS011;1336;48.692;9.144;2023-11-18T09:02:29;6.13;;;3.75;;
2652;SDS011;1336;48.692;9.144;2023-11-18T09:03:27;5.13;;;3.80;;
2652;SDS011;1336;48.692;9.144;2023-11-18T09:04:18;7.63;;;4.50;;
2652;SDS011;1336;48.692;9.144;2023-11-18T09:05:10;5.05;;;4.25;;
2652;SDS011;1336;48.692;9.144;2023-11-18T09:06:03;6.60;;;5.00;;
2652;SDS011;1336;48.692;9.144;2023-11-18T09:06:55;8.88;;;5.75;;
2652;SDS011;1336;48.692;9.144;2023-11-18T09:07:51;12.20;;;6.70;;
2652;SDS011;1336;48.692;9.144;2023-11-18T09:08:44;18.48;;;7.97;;
2652;SDS011;1336;48.692;9.144;2023-11-18T09:09:36;17.33;;;8.30;;
2652;SDS011;1336;48.692;9.144;2023-11-18T09:10:27;19.15;;;8.73;;
2652;SDS011;1336;48.692;9.144;2023-11-18T09:11:18;17.43;;;8.30;;
2652;SDS011;1336;48.692;9.144;2023-11-18T09:12:12;21.23;;;8.98;;
2652;SDS011;1336;48.692;9.144;2023-11-18T09:13:04;14.50;;;7.22;;
2652;SDS011;1336;48.692;9.144;2023-11-18T09:13:55;10.68;;;5.93;;
2652;SDS011;1336;48.692;9.144;2023-11-18T09:14:50;8.15;;;4.70;;
2652;SDS011;1336;48.692;9.144;2023-11-18T09:15:41;6.85;;;4.97;;
2652;SDS011;1336;48.692;9.144;2023-11-18T09:16:32;6.17;;;4.80;;
2652;SDS011;1336;48.692;9.144;2023-11-18T09:17:29;3.80;;;3.42;;
2652;SDS011;1336;48.692;9.144;2023-11-18T09:18:20;4.57;;;3.37;;
2652;SDS011;1336;48.692;9.144;2023-11-18T09:19:12;5.30;;;4.25;;
2652;SDS011;1336;48.692;9.144;2023-11-18T09:20:05;3.88;;;3.47;;
2652;SDS011;1336;48.692;9.144;2023-11-18T09:20:56;3.40;;;3.10;;
2652;SDS011;1336;48.692;9.144;2023-11-18T09:21:51;4.25;;;3.67;;
2652;SDS011;1336;48.692;9.144;2023-11-18T09:22:44;6.82;;;3.90;;
2652;SDS011;1336;48.692;9.144;2023-11-18T09:23:37;3.88;;;2.90;;
2652;SDS011;1336;48.692;9.144;2023-11-18T09:24:28;3.80;;;3.50;;
2652;SDS011;1336;48.692;9.144;2023-11-18T09:25:20;4.07;;;3.25;;
2652;SDS011;1336;48.692;9.144;2023-11-18T09:26:12;3.67;;;3.35;;
2652;SDS011;1336;48.692;9.144;2023-11-18T09:27:03;4.43;;;3.97;;
2652;SDS011;1336;48.692;9.144;2023-11-18T09:27:56;7.13;;;4.50;;
2652;SDS011;1336;48.692;9.144;2023-11-18T09:28:48;5.70;;;3.42;;
2652;SDS011;1336;48.692;9.144;2023-11-18T09:29:42;3.20;;;2.90;;
2652;SDS011;1336;48.692;9.144;2023-11-18T09:30:34;4.10;;;3.70;;
2652;SDS011;1336;48.692;9.144;2023-11-18T09:31:28;4.95;;;3.13;;
2652;SDS011;1336;48.692;9.144;2023-11-18T09:32:23;4.32;;;3.15;;
2652;SDS011;1336;48.692;9.144;2023-11-18T09:33:19;3.15;;;2.72;;
2652;SDS011;1336;48.692;9.144;2023-11-18T09:34:15;2.50;;;2.30;;
2652;SDS011;1336;48.692;9.144;2023-11-18T09:35:08;3.40;;;2.30;;
2652;SDS011;1336;48.692;9.144;2023-11-18T09:36:02;2.60;;;2.15;;
2652;SDS011;1336;48.692;9.144;2023-11-18T09:36:57;2.75;;;2.55;;
2652;SDS011;1336;48.692;9.144;2023-11-18T09:37:49;3.05;;;2.72;;
2652;SDS011;1336;48.692;9.144;2023-11-18T09:38:42;2.72;;;2.53;;
2652;SDS011;1336;48.692;9.144;2023-11-18T09:39:36;2.78;;;2.30;;
2652;SDS011;1336;48.692;9.144;2023-11-18T09:40:35;2.92;;;2.65;;
2652;SDS011;1336;48.692;9.144;2023-11-18T09:41:33;2.92;;;2.35;;
2652;SDS011;1336;48.692;9.144;2023-11-18T09:42:25;2.92;;;2.70;;
2652;SDS011;1336;48.692;9.144;2023-11-18T09:43:18;2.45;;;2.25;;
2652;SDS011;1336;48.692;9.144;2023-11-18T09:44:10;2.35;;;2.15;;
2652;SDS011;1336;48.692;9.144;2023-11-18T09:45:03;2.33;;;2.17;;
2652;SDS011;1336;48.692;9.144;2023-11-18T09:45:56;2.38;;;2.15;;
2652;SDS011;1336;48.692;9.144;2023-11-18T09:46:52;2.83;;;2.47;;
2652;SDS011;1336;48.692;9.144;2023-11-18T09:47:54;2.85;;;2.30;;
2652;SDS011;1336;48.692;9.144;2023-11-18T09:48:45;2.60;;;2.40;;
2652;SDS011;1336;48.692;9.144;2023-11-18T09:49:40;2.35;;;2.10;;
2652;SDS011;1336;48.692;9.144;2023-11-18T09:50:36;2.28;;;2.00;;
2652;SDS011;1336;48.692;9.144;2023-11-18T09:51:28;2.78;;;2.00;;
2652;SDS011;1336;48.692;9.144;2023-11-18T09:52:26;2.90;;;1.90;;
2652;SDS011;1336;48.692;9.144;2023-11-18T09:53:21;2.40;;;2.20;;
2652;SDS011;1336;48.692;9.144;2023-11-18T09:54:22;2.50;;;2.30;;
2652;SDS011;1336;48.692;9.144;2023-11-18T09:55:25;2.30;;;2.10;;
2652;SDS011;1336;48.692;9.144;2023-11-18T09:56:23;2.25;;;1.90;;
2652;SDS011;1336;48.692;9.144;2023-11-18T09:57:30;3.40;;;2.08;;
2652;SDS011;1336;48.692;9.144;2023-11-18T09:58:23;2.58;;;2.15;;
2652;SDS011;1336;48.692;9.144;2023-11-18T09:59:16;2.15;;;1.95;;
2652;SDS011;1336;48.692;9.144;2023-11-18T10:00:15;3.28;;;1.98;;
2652;SDS011;1336;48.692;9.144;2023-11-18T10:01:16;2.22;;;2.03;;
2652;SDS011;1336;48.692;9.144;2023-11-18T10:02:10;2.45;;;1.70;;
2652;SDS011;1336;48.692;9.144;2023-11-18T10:03:01;6.28;;;4.55;;
2652;SDS011;1336;48.692;9.144;2023-11-18T10:03:51;17.00;;;10.97;;
2652;SDS011;1336;48.692;9.144;2023-11-18T10:04:44;9.38;;;8.60;;
2652;SDS011;1336;48.692;9.144;2023-11-18T10:05:39;6.60;;;5.55;;
2652;SDS011;1336;48.692;9.144;2023-11-18T10:06:32;2.55;;;2.35;;
2652;SDS011;1336;48.692;9.144;2023-11-18T10:07:26;2.35;;;1.88;;
2652;SDS011;1336;48.692;9.144;2023-11-18T10:08:22;2.40;;;1.95;;
2652;SDS011;1336;48.692;9.144;2023-11-18T10:09:16;1.90;;;1.80;;
2652;SDS011;1336;48.692;9.144;2023-11-18T10:10:09;5.05;;;1.90;;
2652;SDS011;1336;48.692;9.144;2023-11-18T10:11:05;1.95;;;1.75;;
2652;SDS011;1336;48.692;9.144;2023-11-18T10:11:59;1.90;;;1.50;;
2652;SDS011;1336;48.692;9.144;2023-11-18T10:12:55;1.80;;;1.70;;
2652;SDS011;1336;48.692;9.144;2023-11-18T10:13:48;5.80;;;1.60;;
2652;SDS011;1336;48.692;9.144;2023-11-18T10:14:40;3.20;;;1.50;;
2652;SDS011;1336;48.692;9.144;2023-11-18T10:15:34;1.83;;;1.65;;
2652;SDS011;1336;48.692;9.144;2023-11-18T10:16:27;1.65;;;1.55;;
2652;SDS011;1336;48.692;9.144;2023-11-18T10:17:20;2.22;;;1.80;;
2652;SDS011;1336;48.692;9.144;2023-11-18T10:18:16;2.22;;;1.60;;
2652;SDS011;1336;48.692;9.144;2023-11-18T10:19:12;2.45;;;1.88;;
2652;SDS011;1336;48.692;9.144;2023-11-18T10:20:04;2.72;;;1.77;;
2652;SDS011;1336;48.692;9.144;2023-11-18T10:21:02;2.80;;;1.63;;
2652;SDS011;1336;48.692;9.144;2023-11-18T10:21:54;1.75;;;1.65;;
2652;SDS011;1336;48.692;9.144;2023-11-18T10:22:46;3.03;;;1.45;;
2652;SDS011;1336;48.692;9.144;2023-11-18T10:23:39;2.03;;;1.83;;
2652;SDS011;1336;48.692;9.144;2023-11-18T10:24:48;1.70;;;1.60;;
2652;SDS011;1336;48.692;9.144;2023-11-18T10:25:43;1.40;;;1.30;;
2652;SDS011;1336;48.692;9.144;2023-11-18T10:26:35;2.35;;;2.15;;
2652;SDS011;1336;48.692;9.144;2023-11-18T10:27:28;2.78;;;1.60;;
2652;SDS011;1336;48.692;9.144;2023-11-18T10:28:23;1.90;;;1.40;;
2652;SDS011;1336;48.692;9.144;2023-11-18T10:29:17;1.85;;;1.50;;
2652;SDS011;1336;48.692;9.144;2023-11-18T10:30:09;3.60;;;1.73;;
2652;SDS011;1336;48.692;9.144;2023-11-18T10:31:08;1.70;;;1.60;;
2652;SDS011;1336;48.692;9.144;2023-11-18T10:32:04;1.80;;;1.70;;
2652;SDS011;1336;48.692;9.144;2023-11-18T10:32:59;3.45;;;1.58;;
2652;SDS011;1336;48.692;9.144;2023-11-18T10:33:55;1.80;;;1.63;;
2652;SDS011;1336;48.692;9.144;2023-11-18T10:34:47;2.40;;;1.45;;
2652;SDS011;1336;48.692;9.144;2023-11-18T10:35:39;1.70;;;1.60;;
2652;SDS011;1336;48.692;9.144;2023-11-18T10:36:41;4.82;;;1.50;;
2652;SDS011;1336;48.692;9.144;2023-11-18T10:37:33;1.90;;;1.80;;
2652;SDS011;1336;48.692;9.144;2023-11-18T10:38:32;2.80;;;1.75;;
2652;SDS011;1336;48.692;9.144;2023-11-18T10:39:33;2.30;;;1.60;;
2652;SDS011;1336;48.692;9.144;2023-11-18T10:40:26;2.33;;;1.60;;
2652;SDS011;1336;48.692;9.144;2023-11-18T10:41:19;2.10;;;1.83;;
2652;SDS011;1336;48.692;9.144;2023-11-18T10:42:09;2.67;;;1.85;;
2652;SDS011;1336;48.692;9.144;2023-11-18T10:43:02;1.85;;;1.45;;
2652;SDS011;1336;48.692;9.144;2023-11-18T10:44:06;1.70;;;1.40;;
2652;SDS011;1336;48.692;9.144;2023-11-18T10:45:04;3.95;;;1.90;;
2652;SDS011;1336;48.692;9.144;2023-11-18T10:46:04;2.00;;;1.80;;
2652;SDS011;1336;48.692;9.144;2023-11-18T10:47:01;1.83;;;1.63;;
2652;SDS011;1336;48.692;9.144;2023-11-18T10:47:52;2.38;;;1.50;;
2652;SDS011;1336;48.692;9.144;2023-11-18T10:48:47;2.45;;;1.35;;
2652;SDS011;1336;48.692;9.144;2023-11-18T10:49:38;3.60;;;1.60;;
2652;SDS011;1336;48.692;9.144;2023-11-18T10:50:32;2.70;;;1.40;;
2652;SDS011;1336;48.692;9.144;2023-11-18T10:51:22;1.40;;;1.30;;
2652;SDS011;1336;48.692;9.144;2023-11-18T10:52:16;2.45;;;1.50;;
2652;SDS011;1336;48.692;9.144;2023-11-18T10:53:07;2.30;;;1.30;;
2652;SDS011;1336;48.692;9.144;2023-11-18T10:54:01;2.63;;;1.40;;
2652;SDS011;1336;48.692;9.144;2023-11-18T10:54:53;1.67;;;1.35;;
2652;SDS011;1336;48.692;9.144;2023-11-18T10:55:45;4.38;;;2.00;;
2652;SDS011;1336;48.692;9.144;2023-11-18T10:56:38;2.20;;;1.80;;
2652;SDS011;1336;48.692;9.144;2023-11-18T10:57:37;1.85;;;1.40;;
2652;SDS011;1336;48.692;9.144;2023-11-18T10:58:34;2.80;;;1.35;;
2652;SDS011;1336;48.692;9.144;2023-11-18T10:59:26;2.03;;;1.25;;
2652;SDS011;1336;48.692;9.144;2023-11-18T11:00:18;2.10;;;1.83;;
2652;SDS011;1336;48.692;9.144;2023-11-18T11:01:09;2.80;;;1.77;;
2652;SDS011;1336;48.692;9.144;2023-11-18T11:02:05;1.50;;;1.30;;
2652;SDS011;1336;48.692;9.144;2023-11-18T11:03:09;3.05;;;1.30;;
2652;SDS011;1336;48.692;9.144;2023-11-18T11:04:04;1.58;;;1.42;;
2652;SDS011;1336;48.692;9.144;2023-11-18T11:04:56;4.90;;;1.75;;
2652;SDS011;1336;48.692;9.144;2023-11-18T11:05:48;2.45;;;1.40;;
2652;SDS011;1336;48.692;9.144;2023-11-18T11:06:41;2.88;;;1.60;;
2652;SDS011;1336;48.692;9.144;2023-11-18T11:07:36;2.35;;;1.73;;
2652;SDS011;1336;48.692;9.144;2023-11-18T11:08:28;2.60;;;1.50;;
2652;SDS011;1336;48.692;9.144;2023-11-18T11:09:21;2.30;;;1.25;;
2652;SDS011;1336;48.692;9.144;2023-11-18T11:10:17;1.40;;;1.15;;
2652;SDS011;1336;48.692;9.144;2023-11-18T11:11:15;2.33;;;1.30;;
2652;SDS011;1336;48.692;9.144;2023-11-18T11:12:13;2.95;;;1.50;;
2652;SDS011;1336;48.692;9.144;2023-11-18T11:13:06;3.17;;;1.63;;
2652;SDS011;1336;48.692;9.144;2023-11-18T11:13:59;3.38;;;1.42;;
2652;SDS011;1336;48.692;9.144;2023-11-18T11:14:54;1.80;;;1.30;;
2652;SDS011;1336;48.692;9.144;2023-11-18T11:15:50;1.25;;;1.15;;
2652;SDS011;1336;48.692;9.144;2023-11-18T11:16:45;1.65;;;1.15;;
2652;SDS011;1336;48.692;9.144;2023-11-18T11:17:40;2.88;;;1.25;;
2652;SDS011;1336;48.692;9.144;2023-11-18T11:18:37;2.47;;;1.33;;
2652;SDS011;1336;48.692;9.144;2023-11-18T11:19:37;1.63;;;0.95;;
2652;SDS011;1336;48.692;9.144;2023-11-18T11:20:39;1.35;;;1.10;;
2652;SDS011;1336;48.692;9.144;2023-11-18T11:21:32;2.92;;;1.35;;
2652;SDS011;1336;48.692;9.144;2023-11-18T11:22:32;1.67;;;1.55;;
2652;SDS011;1336;48.692;9.144;2023-11-18T11:23:30;5.85;;;1.52;;
2652;SDS011;1336;48.692;9.144;2023-11-18T11:24:37;3.00;;;1.80;;
2652;SDS011;1336;48.692;9.144;2023-11-18T11:25:41;2.22;;;1.55;;
2652;SDS011;1336;48.692;9.144;2023-11-18T11:26:39;3.65;;;3.10;;
2652;SDS011;1336;48.692;9.144;2023-11-18T11:27:41;2.35;;;2.13;;
2652;SDS011;1336;48.692;9.144;2023-11-18T11:28:42;2.10;;;1.40;;
2652;SDS011;1336;48.692;9.144;2023-11-18T11:29:39;1.70;;;1.33;;
2652;SDS011;1336;48.692;9.144;2023-11-18T11:30:39;1.38;;;1.27;;
2652;SDS011;1336;48.692;9.144;2023-11-18T11:31:35;1.48;;;1.30;;